createdAt,value
2022-09-15T00:01:23.317Z,38.03
2022-09-15T00:06:25.091Z,39.97
2022-09-15T00:11:29.450Z,41.47
2022-09-15T00:16:31.759Z,42.30
2022-09-15T00:21:35.295Z,42.60
2022-09-15T00:26:37.027Z,34.80
2022-09-15T00:31:38.467Z,37.83
2022-09-15T00:36:40.443Z,34.13
2022-09-15T00:41:42.177Z,39.17
2022-09-15T00:46:58.915Z,34.40
2022-09-15T00:52:13.799Z,31.57
2022-09-15T00:57:23.276Z,32.87
2022-09-15T01:02:30.555Z,36.30
2022-09-15T01:07:42.217Z,37.50
2022-09-15T01:12:44.117Z,37.43
2022-09-15T01:18:04.931Z,30.37
2022-09-15T01:23:20.495Z,32.03
2022-09-15T01:28:30.359Z,32.80
2022-09-15T01:33:55.078Z,28.60
2022-09-15T01:39:02.941Z,25.40
2022-09-15T01:44:08.747Z,27.07
2022-09-15T01:49:12.204Z,26.40
2022-09-15T01:54:13.960Z,22.17
2022-09-15T01:59:15.905Z,26.23
2022-09-15T02:04:27.725Z,24.43
2022-09-15T02:09:34.140Z,27.37
2022-09-15T02:14:48.234Z,32.53
2022-09-15T02:20:09.033Z,25.77
2022-09-15T02:25:19.769Z,24.60
2022-09-15T02:30:21.795Z,26.60
2022-09-15T02:35:24.989Z,33.63
2022-09-15T02:40:28.145Z,30.40
2022-09-15T02:45:31.233Z,25.67
2022-09-15T02:50:32.914Z,29.03
2022-09-15T02:55:34.618Z,25.00
2022-09-15T03:00:38.979Z,29.63
2022-09-15T03:05:40.651Z,27.97
2022-09-15T03:10:42.314Z,30.80
2022-09-15T03:15:43.818Z,28.97
2022-09-15T03:20:45.542Z,29.03
2022-09-15T03:25:47.054Z,30.37
2022-09-15T03:30:48.835Z,27.63
2022-09-15T03:35:51.316Z,30.60
2022-09-15T03:41:03.570Z,25.10
2022-09-15T03:46:06.910Z,27.50
2022-09-15T03:51:10.521Z,29.50
2022-09-15T03:56:27.573Z,27.13
2022-09-15T04:01:30.562Z,23.97
2022-09-15T04:06:32.324Z,25.17
2022-09-15T04:11:33.919Z,20.63
2022-09-15T04:16:35.481Z,24.43
2022-09-15T04:21:37.175Z,24.50
2022-09-15T04:26:38.682Z,24.33
2022-09-15T04:31:40.287Z,22.17
2022-09-15T04:36:41.775Z,22.70
2022-09-15T04:41:43.230Z,21.90
2022-09-15T04:46:44.701Z,24.17
2022-09-15T04:51:46.261Z,24.03
2022-09-15T04:56:48.835Z,23.70
2022-09-15T05:01:54.214Z,24.43
2022-09-15T05:06:55.691Z,36.78
2022-09-15T05:11:57.375Z,25.73
2022-09-15T05:16:58.853Z,23.90
2022-09-15T05:22:01.055Z,24.20
2022-09-15T05:27:02.519Z,27.67
2022-09-15T05:32:04.239Z,24.63
2022-09-15T05:37:05.961Z,29.33
2022-09-15T05:42:08.639Z,24.33
2022-09-15T05:47:10.364Z,22.37
2022-09-15T05:52:11.826Z,22.47
2022-09-15T05:57:13.374Z,25.43
2022-09-15T06:02:15.398Z,24.87
2022-09-15T06:07:17.013Z,22.37
2022-09-15T06:12:19.067Z,24.77
2022-09-15T06:17:22.155Z,21.90
2022-09-15T06:22:24.169Z,20.60
2022-09-15T06:27:26.791Z,18.10
2022-09-15T06:32:28.349Z,26.37
2022-09-15T06:37:30.044Z,23.23
2022-09-15T06:42:31.509Z,23.70
2022-09-15T06:47:34.054Z,24.07
2022-09-15T06:52:36.168Z,21.60
2022-09-15T06:57:37.596Z,19.33
2022-09-15T07:02:39.088Z,19.43
2022-09-15T07:07:40.686Z,21.37
2022-09-15T07:12:42.259Z,21.23
2022-09-15T07:17:43.822Z,20.40
2022-09-15T07:22:45.378Z,23.87
2022-09-15T07:27:46.863Z,23.90
2022-09-15T07:32:48.317Z,23.10
2022-09-15T07:37:49.851Z,23.33
2022-09-15T07:42:51.878Z,20.27
2022-09-15T07:47:54.569Z,23.50
2022-09-15T07:52:56.673Z,21.93
2022-09-15T07:58:00.051Z,22.80
2022-09-15T08:03:01.593Z,19.23
2022-09-15T08:08:03.139Z,23.23
2022-09-15T08:13:04.741Z,20.30
2022-09-15T08:18:06.699Z,19.93
2022-09-15T08:23:08.502Z,18.07
2022-09-15T08:28:10.046Z,23.73
2022-09-15T08:33:12.522Z,20.20
2022-09-15T08:38:13.984Z,16.27
2022-09-15T08:43:20.714Z,18.00
2022-09-15T08:48:27.856Z,14.47
2022-09-15T08:53:33.509Z,15.87
2022-09-15T08:58:37.524Z,13.47
2022-09-15T09:04:20.815Z,13.27
2022-09-15T09:09:34.987Z,10.57
2022-09-15T09:14:39.195Z,12.33
2022-09-15T09:19:59.431Z,12.03
2022-09-15T09:25:11.596Z,12.30
2022-09-15T09:30:23.976Z,11.10
2022-09-15T09:35:44.979Z,12.70
2022-09-15T09:40:46.839Z,10.70
2022-09-15T09:45:48.597Z,9.87
2022-09-15T09:50:50.829Z,10.20
2022-09-15T09:55:55.204Z,10.40
2022-09-15T10:01:09.897Z,10.20
2022-09-15T10:06:14.562Z,11.20
2022-09-15T10:11:16.445Z,7.63
2022-09-15T10:16:18.952Z,8.33
2022-09-15T10:21:23.443Z,8.07
2022-09-15T10:26:34.329Z,6.97
2022-09-15T10:31:36.009Z,5.80
2022-09-15T10:36:37.556Z,7.73
2022-09-15T10:42:04.413Z,6.43
2022-09-15T10:47:33.309Z,5.80
2022-09-15T10:53:12.131Z,5.40
2022-09-15T10:58:28.653Z,4.33
2022-09-15T11:03:44.567Z,5.00
2022-09-15T11:09:01.794Z,5.03
2022-09-15T11:14:07.278Z,4.20
2022-09-15T11:19:31.712Z,3.80
2022-09-15T11:24:47.902Z,3.30
2022-09-15T11:30:14.549Z,3.77
2022-09-15T11:35:48.850Z,5.00
2022-09-15T11:41:28.554Z,3.47
2022-09-15T11:46:39.264Z,2.20
2022-09-15T11:51:47.300Z,4.00
2022-09-15T11:56:49.629Z,2.70
2022-09-15T12:02:15.294Z,5.40
2022-09-15T12:07:20.183Z,3.67
2022-09-15T12:12:22.357Z,6.30
2022-09-15T12:17:31.908Z,2.90
2022-09-15T12:22:33.893Z,2.30
2022-09-15T12:27:35.461Z,2.43
2022-09-15T12:32:40.284Z,3.67
2022-09-15T12:37:56.294Z,2.10
2022-09-15T12:42:57.974Z,2.33
2022-09-15T12:48:29.361Z,2.27
2022-09-15T12:53:32.847Z,2.40
2022-09-15T12:58:50.788Z,2.07
2022-09-15T13:03:55.299Z,1.50
2022-09-15T13:09:06.501Z,1.80
2022-09-15T13:14:28.103Z,1.53
2022-09-15T13:19:46.695Z,2.00
2022-09-15T13:25:01.573Z,3.40
2022-09-15T13:30:13.740Z,2.20
2022-09-15T13:35:22.367Z,3.10
2022-09-15T13:40:44.789Z,2.10
2022-09-15T13:45:54.670Z,2.13
2022-09-15T13:50:59.577Z,1.93
2022-09-15T13:56:06.104Z,1.83
2022-09-15T14:01:07.905Z,3.20
2022-09-15T14:06:15.497Z,1.80
2022-09-15T14:11:22.509Z,2.10
2022-09-15T14:16:27.574Z,1.73
2022-09-15T14:21:33.413Z,2.17
2022-09-15T14:26:35.833Z,3.03
2022-09-15T14:31:40.812Z,2.23
2022-09-15T14:36:42.702Z,2.07
2022-09-15T14:41:44.434Z,1.53
2022-09-15T14:46:47.039Z,1.87
2022-09-15T14:51:51.576Z,2.17
2022-09-15T14:56:57.165Z,1.40
2022-09-15T15:02:05.071Z,4.10
2022-09-15T15:07:14.217Z,2.47
2022-09-15T15:12:23.856Z,2.20
2022-09-15T15:17:27.398Z,2.03
2022-09-15T15:22:29.216Z,2.60
2022-09-15T15:27:33.625Z,1.60
2022-09-15T15:32:35.247Z,2.77
2022-09-15T15:37:36.837Z,1.47
2022-09-15T15:42:38.270Z,2.97
2022-09-15T15:47:39.839Z,1.37
2022-09-15T15:52:42.300Z,1.83
2022-09-15T15:57:44.732Z,1.60
2022-09-15T16:02:46.673Z,2.40
2022-09-15T16:07:49.985Z,1.87
2022-09-15T16:12:52.034Z,2.57
2022-09-15T16:17:53.886Z,2.00
2022-09-15T16:22:55.913Z,5.13
2022-09-15T16:27:57.595Z,1.70
2022-09-15T16:32:59.196Z,1.33
2022-09-15T16:38:00.731Z,4.00
2022-09-15T16:43:02.399Z,1.13
2022-09-15T16:48:06.396Z,2.40
2022-09-15T16:53:15.280Z,1.97
2022-09-15T16:58:17.886Z,1.90
2022-09-15T17:03:23.865Z,1.40
2022-09-15T17:08:29.272Z,1.73
2022-09-15T17:13:33.533Z,0.90
2022-09-15T17:18:35.814Z,0.90
2022-09-15T17:23:41.265Z,1.17
2022-09-15T17:28:42.949Z,1.33
2022-09-15T17:33:45.381Z,1.30
2022-09-15T17:38:48.961Z,2.20
2022-09-15T17:43:51.373Z,1.10
2022-09-15T17:48:52.934Z,2.17
2022-09-15T17:53:54.933Z,1.20
2022-09-15T17:58:56.401Z,1.40
2022-09-15T18:03:57.910Z,1.00
2022-09-15T18:08:59.419Z,3.20
2022-09-15T18:14:00.886Z,1.97
2022-09-15T18:19:02.353Z,1.23
2022-09-15T18:24:03.970Z,2.00
2022-09-15T18:29:05.797Z,3.03
2022-09-15T18:34:07.686Z,0.97
2022-09-15T18:39:12.122Z,1.10
2022-09-15T18:44:14.672Z,2.27
2022-09-15T18:49:16.258Z,2.33
2022-09-15T18:54:17.812Z,4.27
2022-09-15T18:59:19.599Z,2.03
2022-09-15T19:04:21.193Z,2.13
2022-09-15T19:09:22.847Z,3.67
2022-09-15T19:14:27.986Z,1.70
2022-09-15T19:19:29.956Z,2.87
2022-09-15T19:24:34.073Z,1.40
2022-09-15T19:29:36.905Z,1.20
2022-09-15T19:34:39.502Z,3.07
2022-09-15T19:39:41.305Z,2.83
2022-09-15T19:44:43.111Z,2.30
2022-09-15T19:49:44.627Z,2.53
2022-09-15T19:54:47.735Z,1.27
2022-09-15T19:59:50.045Z,1.13
2022-09-15T20:04:52.985Z,2.10
2022-09-15T20:09:54.470Z,4.20
2022-09-15T20:14:55.964Z,2.23
2022-09-15T20:19:57.986Z,1.73
2022-09-15T20:24:59.564Z,1.00
2022-09-15T20:30:01.347Z,1.60
2022-09-15T20:35:03.120Z,0.83
2022-09-15T20:40:07.424Z,1.47
2022-09-15T20:45:09.583Z,0.87
2022-09-15T20:50:11.852Z,2.47
2022-09-15T20:55:13.501Z,2.10
2022-09-15T21:00:15.469Z,2.40
2022-09-15T21:05:17.129Z,1.27
2022-09-15T21:10:18.690Z,1.50
2022-09-15T21:15:20.237Z,1.10
2022-09-15T21:20:21.932Z,1.97
2022-09-15T21:25:23.576Z,1.33
2022-09-15T21:30:26.244Z,1.87
2022-09-15T21:35:27.742Z,2.23
2022-09-15T21:40:29.304Z,1.27
2022-09-15T21:45:30.881Z,2.33
2022-09-15T21:50:32.509Z,1.10
2022-09-15T21:55:36.524Z,2.37
2022-09-15T22:00:40.226Z,3.23
2022-09-15T22:05:44.076Z,3.70
2022-09-15T22:10:45.704Z,1.17
2022-09-15T22:15:47.248Z,1.40
2022-09-15T22:20:50.428Z,4.40
2022-09-15T22:25:52.171Z,2.57
2022-09-15T22:31:00.864Z,2.07
2022-09-15T22:36:02.778Z,1.73
2022-09-15T22:41:05.868Z,1.43
2022-09-15T22:46:09.439Z,4.17
2022-09-15T22:51:11.560Z,0.97
2022-09-15T22:56:15.359Z,0.97
2022-09-15T23:01:22.609Z,3.10
2022-09-15T23:06:26.708Z,2.50
2022-09-15T23:11:29.561Z,2.00
2022-09-15T23:16:31.315Z,2.87
2022-09-15T23:21:33.309Z,3.93
2022-09-15T23:26:34.929Z,1.07
2022-09-15T23:31:36.532Z,1.77
2022-09-15T23:36:38.104Z,1.23
2022-09-15T23:41:40.635Z,1.77
2022-09-15T23:46:42.370Z,0.90
2022-09-15T23:51:44.042Z,2.00
2022-09-15T23:56:45.827Z,2.37
